Flight Track Log - Related Links

Times and Time Zones

All times are in EDT time to prevent confusion due to time zone crossing. See the DAL5547 flight status page for this flight to view local times or setup timezone preferences in your user account.


Time Position Orientation Groundspeed Altitude Reporting Facility
EDT Latitude Longitude Course Direction KTS MPH feet Rate Location/Type
Tue 05:50:45 PM 33.6667 -84.5000 296° West 212 244 2,800  Level Atlanta TRACON
Tue 05:51:45 PM 33.7000 -84.5833 296° West 271 312 4,800 2,150 Climbing Atlanta TRACON
Tue 05:52:45 PM 33.7833 -84.5833 360° North 280 322 7,100 1,965 Climbing Atlanta TRACON
Tue 05:54:36 PM 33.9183 -84.5719 North 311 358 10,400 1,860 Climbing Atlanta Center
Tue 05:55:36 PM 34.0039 -84.5600 North 311 358 12,400 1,500 Climbing Atlanta Center
Tue 05:56:36 PM 34.1000 -84.5456 North 311 358 13,400 900 Climbing Atlanta Center
Tue 05:57:36 PM 34.1961 -84.5136 15° North 333 383 14,200 950 Climbing Atlanta Center
Tue 05:58:36 PM 34.2944 -84.4789 16° North 349 402 15,300 1,150 Climbing Atlanta Center
Tue 05:59:36 PM 34.3944 -84.4819 359° North 359 413 16,500 1,100 Climbing Atlanta Center
Tue 06:00:36 PM 34.4947 -84.5050 349° North 358 412 17,500 850 Climbing Atlanta Center
Tue 06:01:36 PM 34.5947 -84.5308 348° North 365 420 18,200 700 Climbing Atlanta Center
Tue 06:02:36 PM 34.6844 -84.5517 349° North 371 427 18,900 750 Climbing Atlanta Center
Tue 06:03:36 PM 34.7908 -84.5700 352° North 371 427 19,700 700 Climbing Atlanta Center
Tue 06:04:36 PM 34.8950 -84.5908 351° North 376 433 20,300 550 Climbing Atlanta Center
Tue 06:05:36 PM 35.0033 -84.5942 359° North 381 438 20,800 550 Climbing Atlanta Center
Tue 06:06:36 PM 35.1142 -84.5872 North 386 444 21,400 550 Climbing Atlanta Center
Tue 06:07:36 PM 35.2247 -84.5828 North 391 450 21,900 550 Climbing Atlanta Center
Tue 06:08:36 PM 35.3375 -84.5786 North 391 450 22,500 550 Climbing Atlanta Center
Tue 06:09:36 PM 35.4481 -84.5742 North 391 450 23,000 500 Climbing Atlanta Center
Tue 06:10:36 PM 35.5606 -84.5697 North 396 456 23,500 500 Climbing Atlanta Center
Tue 06:11:36 PM 35.6733 -84.5653 North 401 461 24,000 550 Climbing Atlanta Center
Tue 06:12:36 PM 35.7964 -84.5583 North 401 461 24,600 400 Climbing Atlanta Center
Tue 06:13:36 PM 35.9092 -84.5669 356° North 401 461 24,800 -183 Climbing Atlanta Center
Tue 06:15:53 PM 36.1703 -84.6186 351° North 435 501 24,000 -241 Descending Indianapolis Center
Tue 06:16:55 PM 36.2878 -84.6414 351° North 430 495 24,000  Level Indianapolis Center
Tue 06:17:56 PM 36.4064 -84.6636 351° North 430 495 24,000  Level Indianapolis Center
Tue 06:18:58 PM 36.5472 -84.6667 359° North 423 487 24,000  Level Indianapolis Center
Tue 06:20:00 PM 36.6647 -84.6717 358° North 423 487 24,000  Level Indianapolis Center
Tue 06:21:02 PM 36.7831 -84.6658 North 427 491 24,000 -290 Level Indianapolis Center
Tue 06:22:04 PM 36.9000 -84.6461 North 427 491 23,400 -1,597 Descending Indianapolis Center
Tue 06:23:06 PM 37.0142 -84.6128 13° North 423 487 20,700 -2,710 Descending Indianapolis Center
Tue 06:24:08 PM 37.1333 -84.5617 19° North 409 471 17,800 -2,565 Descending Indianapolis Center
Tue 06:25:10 PM 37.2392 -84.5517 North 386 444 15,400 -2,468 Descending Indianapolis Center
Tue 06:26:12 PM 37.3428 -84.5400 North 376 433 12,700 -2,516 Descending Indianapolis Center
Tue 06:27:14 PM 37.4428 -84.5306 North 363 418 10,200 -1,258 Descending Indianapolis Center
Tue 06:28:16 PM 37.5297 -84.5211 North 321 369 10,100 -194 Descending Indianapolis Center
Tue 06:29:18 PM 37.6239 -84.5108 North 294 338 9,800 -960 Descending Indianapolis Center
Tue 06:30:21 PM 37.7042 -84.5022 North 290 334 8,100 -1,355 Descending Indianapolis Center
Tue 06:31:22 PM 37.7853 -84.4942 North 291 335 7,000 -537 Descending Indianapolis Center
Tue 06:32:24 PM 37.8569 -84.4850 North 268 308 7,000 -290 Level Indianapolis Center
Tue 06:33:26 PM 37.9228 -84.4783 North 244 281 6,400 -1,065 Descending Indianapolis Center
Tue 06:34:28 PM 37.9911 -84.4661 North 244 281 4,800 -1,355 Descending Indianapolis Center
Tue 06:35:30 PM 38.0703 -84.4517 North 246 283 3,600 -871 Descending Indianapolis Center
Tue 06:36:32 PM 38.1200 -84.4661 347° North 223 257 3,000 -339 Descending Indianapolis Center
Tue 06:37:34 PM 38.1083 -84.5311 257° West 199 229 2,900 -581 Descending Indianapolis Center
Tue 06:38:36 PM 38.0678 -84.5714 218° Southwest 186 214 1,800 -1,065 Descending Indianapolis Center
Tue 06:40:00 PM 38.0333 -84.6000 310° West  Level FlightAware Approximate

Login

Don't have an account? Register now (free) for customized features, flight alerts, and more!